ENVR/VRY METAR and TAF weather

Enter ICAO airport designator
Station Type Date Time Source
ENVR METAR 2021/01/27 07:50 UTC NOAA

ENVR 270750Z 10013KT CAVOK 01/M05 Q1004


Station Type Date Time Source
ENVR Decoded METAR 2021/01/27 07:50 UTC NOAA

Station name not available
Jan 27, 2021 - 02:50 AM EST / 2021.01.27 0750 UTC
Wind: from the E (100 degrees) at 15 MPH (13 KT):0
Visibility: greater than 7 mile(s):0
Temperature: 33 F (1 C)
Windchill: 23 F (-5 C):1
Dew Point: 23 F (-5 C)
Relative Humidity: 64%
Pressure (altimeter): 29.65 in. Hg (1004 hPa)
ob: ENVR 270750Z 10013KT CAVOK 01/M05 Q1004
cycle: 8

Station Type Date Time Source
ENVR TAF UTC NOAA

Error!

Example: see airport list